Amboy, Minnesota
Current Conditions -  °F | °C
As of 1:55 PM on Sunday 23 Nov 2014 (Local Time) from KJYG Reporting Station
Overcast Overcast  
Wind Chill:   Ceiling: 1100
Heat Index:   Visibility: 10mi
Dew Point:   Wind: 20mph
Humidity: 87%   Direction: 300°WNW
Pressure: 29.44"   Gusts: 28mph
Location:  43.89°N, 94.16°W
Report Text: KJYG 231955Z AUTO 30017G24KT 10SM BKN011 OVC048 06/04 A2944 RMK AO2
Loading
Personal Weather Stations






























Interactive Weather Map New forecast layout! Learn more

10-Day Weather Forecast

Advertisements
Track Severe Weather on mobile